Time,TemperatureF,DewpointF,PressureIn,WindDirection,WindDirectionDegrees,WindSpeedMPH,WindSpeedGustMPH,Humidity,HourlyPrecipIn,Conditions,Clouds,dailyrainin,SoftwareType,DateUTC
2013-09-18 00:00:00,46.6,41.4,29.72,NW,315,0.0,1.3,82,0.00,,,0.00,WUHU21636XXSP,2013-09-17 22:00:00,
2013-09-18 00:05:00,46.6,41.4,29.72,SE,135,1.3,1.3,82,0.00,,,0.00,WUHU21636XXSP,2013-09-17 22:05:00,
2013-09-18 00:10:00,46.6,41.4,29.71,SE,135,1.0,1.0,82,0.00,CLR,,0.00,WeatherDisplay:10.37,2013-09-17 22:10:00,
2013-09-18 00:15:00,46.6,41.7,29.72,SE,135,3.6,3.6,83,0.00,,,0.00,WUHU21636XXSP,2013-09-17 22:15:00,
2013-09-18 00:20:00,46.4,41.5,29.72,ESE,113,1.1,3.6,83,0.00,,,0.00,WUHU21636XXSP,2013-09-17 22:20:00,
2013-09-18 00:21:00,46.6,41.7,29.71,SE,129,3.0,4.0,83,0.00,CLR,,0.00,WeatherDisplay:10.37,2013-09-17 22:21:00,
2013-09-18 00:25:00,46.4,41.5,29.72,ESE,113,2.0,3.6,83,0.00,,,0.00,WUHU21636XXSP,2013-09-17 22:25:00,
2013-09-18 00:30:00,46.4,41.5,29.71,SE,135,0.0,2.0,83,0.00,,,0.00,WUHU21636XXSP,2013-09-17 22:30:00,
2013-09-18 00:35:00,46.2,41.3,29.71,ESE,113,0.0,2.0,83,0.00,,,0.00,WUHU21636XXSP,2013-09-17 22:35:00,
2013-09-18 00:40:00,46.2,41.3,29.71,SE,135,0.4,0.4,83,0.00,,,0.00,WUHU21636XXSP,2013-09-17 22:40:00,
2013-09-18 00:45:00,46.0,41.1,29.71,SE,135,0.4,0.4,83,0.00,,,0.00,WUHU21636XXSP,2013-09-17 22:45:00,
2013-09-18 00:50:00,46.0,41.1,29.71,SE,135,0.0,0.4,83,0.00,,,0.00,WUHU21636XXSP,2013-09-17 22:50:00,
2013-09-18 00:55:00,46.0,41.1,29.71,ESE,113,2.7,2.7,83,0.00,,,0.00,WUHU21636XXSP,2013-09-17 22:55:00,
2013-09-18 01:00:00,46.0,41.1,29.71,West,270,0.0,2.7,83,0.00,,,0.00,WUHU21636XXSP,2013-09-17 23:00:00,
2013-09-18 01:05:00,45.9,41.0,29.70,ENE,68,0.0,2.7,83,0.00,,,0.00,WUHU21636XXSP,2013-09-17 23:05:00,
2013-09-18 01:10:00,45.7,40.8,29.70,ESE,113,0.0,0.0,83,0.00,,,0.00,WUHU21636XXSP,2013-09-17 23:10:00,
2013-09-18 01:15:00,45.7,40.8,29.70,ESE,113,2.2,2.2,83,0.00,,,0.00,WUHU21636XXSP,2013-09-17 23:15:00,
2013-09-18 01:20:00,45.7,41.1,29.70,NW,315,1.3,2.2,84,0.00,,,0.00,WUHU21636XXSP,2013-09-17 23:20:00,
2013-09-18 01:25:00,45.7,41.1,29.70,ESE,113,0.0,2.2,84,0.00,,,0.00,WUHU21636XXSP,2013-09-17 23:25:00,
2013-09-18 01:30:00,45.7,41.1,29.70,ESE,113,0.0,1.3,84,0.00,,,0.00,WUHU21636XXSP,2013-09-17 23:30:00,
2013-09-18 01:35:00,45.7,41.1,29.70,WNW,293,0.0,0.0,84,0.00,,,0.00,WUHU21636XXSP,2013-09-17 23:35:00,
2013-09-18 01:40:00,45.3,40.7,29.69,SE,135,0.0,0.0,84,0.00,,,0.00,WUHU21636XXSP,2013-09-17 23:40:00,
2013-09-18 01:45:00,45.3,40.7,29.69,SE,135,0.0,0.0,84,0.00,,,0.00,WUHU21636XXSP,2013-09-17 23:45:00,
2013-09-18 01:50:00,45.1,40.5,29.69,SE,135,0.0,0.0,84,0.00,,,0.00,WUHU21636XXSP,2013-09-17 23:50:00,
2013-09-18 01:55:00,45.1,40.5,29.68,ESE,113,1.3,1.3,84,0.00,,,0.00,WUHU21636XXSP,2013-09-17 23:55:00,
2013-09-18 02:00:00,45.1,40.5,29.68,SE,135,0.0,1.3,84,0.00,,,0.00,WUHU21636XXSP,2013-09-18 00:00:00,
2013-09-18 02:05:00,45.0,40.5,29.68,SE,135,0.0,1.3,84,0.00,,,0.00,WUHU21636XXSP,2013-09-18 00:05:00,
2013-09-18 02:10:00,45.0,40.7,29.67,SE,135,0.0,0.0,85,0.00,,,0.00,WUHU21636XXSP,2013-09-18 00:10:00,
2013-09-18 02:15:00,44.8,40.6,29.67,SE,135,0.0,0.0,85,0.00,,,0.00,WUHU21636XXSP,2013-09-18 00:15:00,
2013-09-18 02:20:00,44.8,40.6,29.67,SE,135,0.0,0.0,85,0.00,,,0.00,WUHU21636XXSP,2013-09-18 00:20:00,
2013-09-18 02:25:00,44.8,40.6,29.67,WNW,293,0.0,0.0,85,0.00,,,0.00,WUHU21636XXSP,2013-09-18 00:25:00,
2013-09-18 02:30:00,44.8,40.6,29.67,NW,315,0.0,0.0,85,0.00,,,0.00,WUHU21636XXSP,2013-09-18 00:30:00,
2013-09-18 02:35:00,44.8,40.6,29.67,SE,135,0.0,0.0,85,0.00,,,0.00,WUHU21636XXSP,2013-09-18 00:35:00,
2013-09-18 02:40:00,44.8,40.6,29.67,SE,135,0.0,0.0,85,0.00,,,0.00,WUHU21636XXSP,2013-09-18 00:40:00,
2013-09-18 02:45:00,44.8,40.6,29.66,SE,135,0.0,0.0,85,0.00,,,0.00,WUHU21636XXSP,2013-09-18 00:45:00,
2013-09-18 02:50:00,44.8,40.6,29.66,SE,135,0.0,0.0,85,0.00,,,0.00,WUHU21636XXSP,2013-09-18 00:50:00,
2013-09-18 02:55:00,44.8,40.6,29.66,SE,135,0.0,0.0,85,0.00,,,0.00,WUHU21636XXSP,2013-09-18 00:55:00,
2013-09-18 03:00:00,44.8,40.6,29.66,SE,135,0.0,0.0,85,0.00,,,0.00,WUHU21636XXSP,2013-09-18 01:00:00,
2013-09-18 03:05:00,44.6,40.4,29.65,SE,135,0.0,0.0,85,0.00,,,0.00,WUHU21636XXSP,2013-09-18 01:05:00,
2013-09-18 03:10:00,44.4,40.2,29.65,SE,135,0.0,0.0,85,0.00,,,0.00,WUHU21636XXSP,2013-09-18 01:10:00,
2013-09-18 03:15:00,44.4,40.2,29.65,SE,135,0.0,0.0,85,0.00,,,0.00,WUHU21636XXSP,2013-09-18 01:15:00,
2013-09-18 03:20:00,44.4,40.2,29.65,ESE,113,0.0,0.0,85,0.00,,,0.00,WUHU21636XXSP,2013-09-18 01:20:00,
2013-09-18 03:25:00,44.2,40.3,29.64,SE,135,0.0,0.0,86,0.00,,,0.00,WUHU21636XXSP,2013-09-18 01:25:00,
2013-09-18 03:30:00,44.2,40.3,29.64,SE,135,0.0,0.0,86,0.00,,,0.00,WUHU21636XXSP,2013-09-18 01:30:00,
2013-09-18 03:35:00,44.2,40.3,29.63,SE,135,0.0,0.0,86,0.00,,,0.00,WUHU21636XXSP,2013-09-18 01:35:00,
2013-09-18 03:40:00,44.2,40.3,29.63,SE,135,1.1,1.1,86,0.00,,,0.00,WUHU21636XXSP,2013-09-18 01:40:00,
2013-09-18 03:45:00,44.4,40.5,29.63,SE,135,0.0,1.1,86,0.00,,,0.00,WUHU21636XXSP,2013-09-18 01:45:00,
2013-09-18 03:50:00,44.4,40.5,29.63,NW,315,0.0,1.1,86,0.00,,,0.00,WUHU21636XXSP,2013-09-18 01:50:00,
2013-09-18 03:55:00,44.4,40.5,29.63,ESE,113,0.0,0.0,86,0.00,,,0.00,WUHU21636XXSP,2013-09-18 01:55:00,
2013-09-18 04:00:00,44.4,40.5,29.62,NNW,338,0.0,0.0,86,0.00,,,0.00,WUHU21636XXSP,2013-09-18 02:00:00,
2013-09-18 04:05:00,44.4,40.7,29.62,ESE,113,0.0,0.0,87,0.00,,,0.00,WUHU21636XXSP,2013-09-18 02:05:00,
2013-09-18 04:10:00,44.4,40.7,29.62,WNW,293,0.0,0.0,87,0.00,,,0.00,WUHU21636XXSP,2013-09-18 02:10:00,
2013-09-18 04:15:00,44.4,40.7,29.62,ESE,113,0.0,0.0,87,0.00,,,0.00,WUHU21636XXSP,2013-09-18 02:15:00,
2013-09-18 04:20:00,44.4,40.7,29.62,SE,135,0.0,0.0,87,0.00,,,0.00,WUHU21636XXSP,2013-09-18 02:20:00,
2013-09-18 04:25:00,44.4,40.7,29.62,SE,135,0.0,0.0,87,0.00,,,0.00,WUHU21636XXSP,2013-09-18 02:25:00,
2013-09-18 04:30:00,44.2,40.5,29.62,SE,135,0.0,0.0,87,0.00,,,0.00,WUHU21636XXSP,2013-09-18 02:30:00,
2013-09-18 04:35:00,44.2,40.5,29.62,West,270,0.0,0.0,87,0.00,,,0.00,WUHU21636XXSP,2013-09-18 02:35:00,
2013-09-18 04:40:00,44.2,40.5,29.62,West,270,0.0,0.0,87,0.00,,,0.00,WUHU21636XXSP,2013-09-18 02:40:00,
2013-09-18 04:45:00,44.2,40.5,29.62,ESE,113,0.0,0.0,87,0.00,,,0.00,WUHU21636XXSP,2013-09-18 02:45:00,
2013-09-18 04:50:00,44.2,40.5,29.61,ENE,68,0.0,0.0,87,0.00,,,0.00,WUHU21636XXSP,2013-09-18 02:50:00,
2013-09-18 04:55:00,44.2,40.5,29.61,SE,135,0.0,0.0,87,0.00,,,0.00,WUHU21636XXSP,2013-09-18 02:55:00,
2013-09-18 05:00:00,44.2,40.5,29.61,SE,135,0.0,0.0,87,0.00,,,0.00,WUHU21636XXSP,2013-09-18 03:00:00,
2013-09-18 05:05:00,44.2,40.5,29.60,SE,135,0.9,0.9,87,0.00,,,0.00,WUHU21636XXSP,2013-09-18 03:05:00,
2013-09-18 05:10:00,44.2,40.5,29.60,ESE,113,0.0,0.9,87,0.00,,,0.00,WUHU21636XXSP,2013-09-18 03:10:00,
2013-09-18 05:15:00,44.2,40.5,29.60,ESE,113,0.0,0.9,87,0.00,,,0.00,WUHU21636XXSP,2013-09-18 03:15:00,
2013-09-18 05:20:00,44.2,40.5,29.60,ESE,113,0.0,0.0,87,0.00,,,0.00,WUHU21636XXSP,2013-09-18 03:20:00,
2013-09-18 05:25:00,44.2,40.5,29.59,SE,135,0.0,0.0,87,0.00,,,0.00,WUHU21636XXSP,2013-09-18 03:25:00,
2013-09-18 05:30:00,44.1,40.5,29.59,SE,135,0.0,0.0,87,0.00,,,0.00,WUHU21636XXSP,2013-09-18 03:30:00,
2013-09-18 05:35:00,43.9,40.3,29.59,NW,315,0.0,0.0,87,0.00,,,0.00,WUHU21636XXSP,2013-09-18 03:35:00,
2013-09-18 05:40:00,44.1,40.5,29.59,NW,315,0.0,0.0,87,0.00,,,0.00,WUHU21636XXSP,2013-09-18 03:40:00,
2013-09-18 05:45:00,44.1,40.5,29.59,NW,315,0.0,0.0,87,0.00,,,0.00,WUHU21636XXSP,2013-09-18 03:45:00,
2013-09-18 05:50:00,44.1,40.5,29.59,SE,135,0.0,0.0,87,0.00,,,0.00,WUHU21636XXSP,2013-09-18 03:50:00,
2013-09-18 05:55:00,44.2,40.5,29.59,West,270,0.0,0.0,87,0.00,,,0.00,WUHU21636XXSP,2013-09-18 03:55:00,
2013-09-18 06:00:00,44.2,40.5,29.58,WNW,293,0.0,0.0,87,0.00,,,0.00,WUHU21636XXSP,2013-09-18 04:00:00,
2013-09-18 06:05:00,44.2,40.5,29.58,WNW,293,2.5,2.5,87,0.00,,,0.00,WUHU21636XXSP,2013-09-18 04:05:00,
2013-09-18 06:10:00,44.2,40.5,29.58,WNW,293,0.0,2.5,87,0.00,,,0.00,WUHU21636XXSP,2013-09-18 04:10:00,
2013-09-18 06:15:00,44.2,40.5,29.58,WNW,293,0.0,2.5,87,0.00,,,0.00,WUHU21636XXSP,2013-09-18 04:15:00,
2013-09-18 06:20:00,44.4,40.7,29.58,ESE,113,0.0,0.0,87,0.00,,,0.00,WUHU21636XXSP,2013-09-18 04:20:00,
2013-09-18 06:25:00,44.4,40.7,29.57,ESE,113,0.0,0.0,87,0.00,,,0.00,WUHU21636XXSP,2013-09-18 04:25:00,
2013-09-18 06:30:00,44.6,41.2,29.57,ESE,113,0.0,0.0,88,0.00,,,0.00,WUHU21636XXSP,2013-09-18 04:30:00,
2013-09-18 06:35:00,44.8,41.4,29.57,ESE,113,0.0,0.0,88,0.00,,,0.00,WUHU21636XXSP,2013-09-18 04:35:00,
2013-09-18 06:40:00,45.0,41.6,29.57,SE,135,0.0,0.0,88,0.00,,,0.00,WUHU21636XXSP,2013-09-18 04:40:00,
2013-09-18 06:45:00,45.0,41.6,29.57,ESE,113,0.0,0.0,88,0.00,,,0.00,WUHU21636XXSP,2013-09-18 04:45:00,
2013-09-18 06:50:00,45.1,41.4,29.57,ESE,113,0.0,0.0,87,0.00,,,0.00,WUHU21636XXSP,2013-09-18 04:50:00,
2013-09-18 06:55:00,45.3,41.6,29.57,SE,135,0.4,0.4,87,0.00,,,0.00,WUHU21636XXSP,2013-09-18 04:55:00,
2013-09-18 07:00:00,45.3,41.6,29.57,ESE,113,0.0,0.4,87,0.00,,,0.00,WUHU21636XXSP,2013-09-18 05:00:00,
2013-09-18 07:05:00,45.5,41.8,29.57,WNW,293,0.0,0.4,87,0.00,,,0.00,WUHU21636XXSP,2013-09-18 05:05:00,
2013-09-18 07:10:00,45.7,42.0,29.57,ESE,113,0.0,0.0,87,0.00,,,0.00,WUHU21636XXSP,2013-09-18 05:10:00,
2013-09-18 07:15:00,45.7,42.0,29.57,ESE,113,1.3,1.3,87,0.00,,,0.00,WUHU21636XXSP,2013-09-18 05:15:00,
2013-09-18 07:20:00,45.9,41.9,29.56,SE,135,0.9,1.3,86,0.00,,,0.00,WUHU21636XXSP,2013-09-18 05:20:00,
2013-09-18 07:25:00,46.0,42.0,29.56,SE,135,0.0,1.3,86,0.00,,,0.00,WUHU21636XXSP,2013-09-18 05:25:00,
2013-09-18 07:30:00,46.0,42.0,29.56,SE,135,0.9,0.9,86,0.00,,,0.00,WUHU21636XXSP,2013-09-18 05:30:00,
2013-09-18 07:35:00,46.2,42.2,29.56,ESE,113,0.0,0.9,86,0.00,,,0.00,WUHU21636XXSP,2013-09-18 05:35:00,
2013-09-18 07:40:00,46.4,42.4,29.56,SE,135,0.0,0.9,86,0.00,,,0.00,WUHU21636XXSP,2013-09-18 05:40:00,
2013-09-18 07:45:00,46.6,42.6,29.56,WNW,293,0.0,0.0,86,0.00,,,0.00,WUHU21636XXSP,2013-09-18 05:45:00,
2013-09-18 07:50:00,46.8,42.8,29.56,ESE,113,0.4,0.4,86,0.00,,,0.00,WUHU21636XXSP,2013-09-18 05:50:00,
2013-09-18 07:55:00,46.9,42.6,29.56,ESE,113,0.9,0.9,85,0.00,,,0.00,WUHU21636XXSP,2013-09-18 05:55:00,
2013-09-18 08:00:00,46.9,42.6,29.56,SE,135,1.6,1.6,85,0.00,,,0.00,WUHU21636XXSP,2013-09-18 06:00:00,
2013-09-18 08:05:00,46.9,42.6,29.56,SE,135,0.4,1.6,85,0.00,,,0.00,WUHU21636XXSP,2013-09-18 06:05:00,
2013-09-18 08:10:00,47.1,42.8,29.55,SE,135,0.0,1.6,85,0.00,,,0.00,WUHU21636XXSP,2013-09-18 06:10:00,
2013-09-18 08:15:00,47.1,42.8,29.55,SE,135,0.7,0.7,85,0.00,,,0.00,WUHU21636XXSP,2013-09-18 06:15:00,
2013-09-18 08:20:00,47.3,43.0,29.55,SE,135,0.0,0.7,85,0.00,,,0.00,WUHU21636XXSP,2013-09-18 06:20:00,
2013-09-18 08:25:00,47.3,43.0,29.55,SE,135,1.6,1.6,85,0.00,,,0.00,WUHU21636XXSP,2013-09-18 06:25:00,
2013-09-18 08:30:00,47.3,43.0,29.55,SE,135,0.7,1.6,85,0.00,,,0.00,WUHU21636XXSP,2013-09-18 06:30:00,
2013-09-18 08:35:00,47.3,43.0,29.55,ESE,113,0.0,1.6,85,0.00,,,0.00,WUHU21636XXSP,2013-09-18 06:35:00,
2013-09-18 08:40:00,47.5,43.2,29.55,ESE,113,2.2,2.2,85,0.00,,,0.00,WUHU21636XXSP,2013-09-18 06:40:00,
2013-09-18 08:45:00,47.5,43.2,29.54,ESE,113,0.0,2.2,85,0.00,,,0.00,WUHU21636XXSP,2013-09-18 06:45:00,
2013-09-18 08:50:00,47.5,43.2,29.54,SE,135,0.0,2.2,85,0.00,,,0.00,WUHU21636XXSP,2013-09-18 06:50:00,
2013-09-18 08:55:00,47.5,43.5,29.54,SE,135,2.9,2.9,86,0.00,,,0.00,WUHU21636XXSP,2013-09-18 06:55:00,
2013-09-18 09:00:00,47.5,43.5,29.54,SE,135,3.4,3.4,86,0.00,,,0.00,WUHU21636XXSP,2013-09-18 07:00:00,
2013-09-18 09:05:00,47.5,43.5,29.54,ESE,113,1.6,3.4,86,0.00,,,0.00,WUHU21636XXSP,2013-09-18 07:05:00,
2013-09-18 09:10:00,47.5,43.5,29.54,SE,135,0.0,3.4,86,0.00,,,0.00,WUHU21636XXSP,2013-09-18 07:10:00,
2013-09-18 09:15:00,47.5,43.5,29.54,ESE,113,0.0,1.6,86,0.00,,,0.00,WUHU21636XXSP,2013-09-18 07:15:00,
2013-09-18 09:20:00,47.5,43.8,29.54,ESE,113,2.7,2.7,87,0.00,,,0.00,WUHU21636XXSP,2013-09-18 07:20:00,
2013-09-18 09:25:00,47.8,44.1,29.54,SE,135,0.0,2.7,87,0.00,,,0.00,WUHU21636XXSP,2013-09-18 07:25:00,
2013-09-18 09:30:00,47.8,44.1,29.54,SE,135,4.7,4.7,87,0.00,,,0.00,WUHU21636XXSP,2013-09-18 07:30:00,
2013-09-18 09:35:00,47.8,44.1,29.54,SSE,158,0.0,4.7,87,0.00,,,0.00,WUHU21636XXSP,2013-09-18 07:35:00,
2013-09-18 09:40:00,47.8,44.1,29.54,ESE,113,2.0,4.7,87,0.00,,,0.00,WUHU21636XXSP,2013-09-18 07:40:00,
2013-09-18 09:45:00,47.8,44.4,29.54,SE,135,0.0,2.0,88,0.00,,,0.00,WUHU21636XXSP,2013-09-18 07:45:00,
2013-09-18 09:50:00,48.0,44.6,29.54,SSE,158,0.0,2.0,88,0.00,,,0.00,WUHU21636XXSP,2013-09-18 07:50:00,
2013-09-18 09:55:00,48.2,44.8,29.53,South,180,0.0,0.0,88,0.00,,,0.00,WUHU21636XXSP,2013-09-18 07:55:00,
2013-09-18 10:00:00,48.4,45.0,29.53,NW,315,0.0,0.0,88,0.00,,,0.00,WUHU21636XXSP,2013-09-18 08:00:00,
2013-09-18 10:05:00,48.7,45.9,29.53,NW,315,0.0,0.0,90,0.00,,,0.00,WUHU21636XXSP,2013-09-18 08:05:00,
2013-09-18 10:10:00,48.9,45.8,29.53,WNW,293,0.0,0.0,89,0.00,,,0.00,WUHU21636XXSP,2013-09-18 08:10:00,
2013-09-18 10:15:00,49.1,46.0,29.53,WNW,293,0.4,0.4,89,0.00,,,0.00,WUHU21636XXSP,2013-09-18 08:15:00,
2013-09-18 10:20:00,49.3,46.2,29.53,South,180,0.0,0.4,89,0.00,,,0.00,WUHU21636XXSP,2013-09-18 08:20:00,
2013-09-18 10:25:00,49.3,46.5,29.53,WNW,293,0.0,0.4,90,0.00,,,0.00,WUHU21636XXSP,2013-09-18 08:25:00,
2013-09-18 10:30:00,49.6,46.5,29.53,ESE,113,0.0,0.0,89,0.00,,,0.00,WUHU21636XXSP,2013-09-18 08:30:00,
2013-09-18 10:35:00,49.6,46.5,29.53,ESE,113,1.1,1.1,89,0.00,,,0.00,WUHU21636XXSP,2013-09-18 08:35:00,
2013-09-18 10:40:00,49.6,46.5,29.53,SE,135,2.7,2.7,89,0.00,,,0.00,WUHU21636XXSP,2013-09-18 08:40:00,
2013-09-18 10:45:00,49.8,46.9,29.53,WNW,293,0.0,2.7,90,0.00,,,0.00,WUHU21636XXSP,2013-09-18 08:45:00,
2013-09-18 10:50:00,49.8,46.9,29.52,WNW,293,0.0,2.7,90,0.00,,,0.00,WUHU21636XXSP,2013-09-18 08:50:00,
2013-09-18 10:55:00,49.8,46.9,29.52,SE,135,0.0,0.0,90,0.00,,,0.00,WUHU21636XXSP,2013-09-18 08:55:00,
2013-09-18 11:00:00,50.2,47.3,29.52,SE,135,0.0,0.0,90,0.00,,,0.00,WUHU21636XXSP,2013-09-18 09:00:00,
2013-09-18 11:05:00,50.2,47.3,29.52,SSE,158,0.0,0.0,90,0.00,,,0.00,WUHU21636XXSP,2013-09-18 09:05:00,
2013-09-18 11:10:00,50.4,47.2,29.52,SE,135,2.0,2.0,89,0.00,,,0.00,WUHU21636XXSP,2013-09-18 09:10:00,
2013-09-18 11:15:00,50.7,47.2,29.52,ESE,113,0.0,2.0,88,0.00,,,0.00,WUHU21636XXSP,2013-09-18 09:15:00,
2013-09-18 11:20:00,50.9,47.4,29.52,ESE,113,0.0,2.0,88,0.00,,,0.00,WUHU21636XXSP,2013-09-18 09:20:00,
2013-09-18 11:25:00,51.1,47.6,29.52,SE,135,0.0,0.0,88,0.00,,,0.00,WUHU21636XXSP,2013-09-18 09:25:00,
2013-09-18 11:30:00,51.3,47.8,29.51,SE,135,0.7,0.7,88,0.00,,,0.00,WUHU21636XXSP,2013-09-18 09:30:00,
2013-09-18 11:35:00,51.4,47.9,29.51,SE,135,0.0,0.7,88,0.00,,,0.00,WUHU21636XXSP,2013-09-18 09:35:00,
2013-09-18 11:40:00,51.4,47.9,29.51,SE,135,1.6,1.6,88,0.00,,,0.00,WUHU21636XXSP,2013-09-18 09:40:00,
2013-09-18 11:45:00,51.6,48.1,29.51,SE,135,0.0,1.6,88,0.00,,,0.00,WUHU21636XXSP,2013-09-18 09:45:00,
2013-09-18 11:50:00,51.6,47.8,29.51,ESE,113,1.1,1.6,87,0.00,,,0.00,WUHU21636XXSP,2013-09-18 09:50:00,
2013-09-18 11:55:00,52.0,48.2,29.51,SE,135,0.0,1.1,87,0.00,,,0.00,WUHU21636XXSP,2013-09-18 09:55:00,
2013-09-18 12:00:00,52.0,48.2,29.51,SE,135,0.0,1.1,87,0.00,,,0.00,WUHU21636XXSP,2013-09-18 10:00:00,
2013-09-18 12:05:00,52.2,48.1,29.51,SE,135,0.4,0.4,86,0.00,,,0.00,WUHU21636XXSP,2013-09-18 10:05:00,
2013-09-18 12:10:00,52.3,48.5,29.51,SE,135,0.0,0.4,87,0.00,,,0.00,WUHU21636XXSP,2013-09-18 10:10:00,
2013-09-18 12:15:00,52.3,48.2,29.51,SE,135,3.8,3.8,86,0.00,,,0.00,WUHU21636XXSP,2013-09-18 10:15:00,
2013-09-18 12:17:00,52.3,48.4,29.51,SE,135,0.4,3.8,86,0.00,,,0.00,WUHU21636XXSP,2013-09-18 10:17:00,
2013-09-18 12:20:00,52.5,48.4,29.51,ESE,113,1.6,3.8,86,0.00,,,0.00,WUHU21636XXSP,2013-09-18 10:20:00,
2013-09-18 12:22:00,52.5,48.4,29.51,SE,135,1.1,3.8,86,0.00,,,0.00,WUHU21636XXSP,2013-09-18 10:22:00,
2013-09-18 12:25:00,52.5,48.4,29.51,SE,135,1.1,3.8,86,0.00,,,0.00,WUHU21636XXSP,2013-09-18 10:25:00,
2013-09-18 12:30:00,52.7,48.9,29.50,SE,135,0.0,1.6,87,0.00,,,0.00,WUHU21636XXSP,2013-09-18 10:30:00,
2013-09-18 12:35:00,52.9,49.1,29.51,SE,135,0.0,1.1,87,0.00,,,0.00,WUHU21636XXSP,2013-09-18 10:35:00,
2013-09-18 12:40:00,52.9,49.1,29.50,SE,135,0.0,0.0,87,0.00,-RA,,0.00,WeatherDisplay:10.37,2013-09-18 10:40:00,
2013-09-18 12:45:00,53.1,49.3,29.51,SE,135,0.0,0.0,87,0.00,,,0.00,WUHU21636XXSP,2013-09-18 10:45:00,
2013-09-18 12:50:00,53.1,49.3,29.50,ESE,123,0.0,0.0,87,0.00,OVC,,0.00,WeatherDisplay:10.37,2013-09-18 10:50:00,
2013-09-18 12:55:00,53.2,49.4,29.50,SE,135,0.9,0.9,87,0.00,,,0.00,WUHU21636XXSP,2013-09-18 10:55:00,
2013-09-18 13:00:00,53.2,49.5,29.49,SE,135,1.0,1.0,87,0.00,OVC,,0.00,WeatherDisplay:10.37,2013-09-18 11:00:00,
2013-09-18 13:05:00,53.8,50.0,29.50,SE,135,0.0,0.9,87,0.00,,,0.00,WUHU21636XXSP,2013-09-18 11:05:00,
2013-09-18 13:10:00,53.8,50.0,29.49,SE,135,0.0,0.0,87,0.00,OVC,,0.00,WeatherDisplay:10.37,2013-09-18 11:10:00,
2013-09-18 13:15:00,54.0,49.9,29.50,SE,135,1.3,2.0,86,0.00,,,0.00,WUHU21636XXSP,2013-09-18 11:15:00,
2013-09-18 13:20:00,54.0,49.9,29.50,SE,135,1.8,2.0,86,0.00,,,0.00,WUHU21636XXSP,2013-09-18 11:20:00,
2013-09-18 13:21:00,54.0,49.9,29.49,ESE,123,1.0,2.0,86,0.00,-RA,,0.00,WeatherDisplay:10.37,2013-09-18 11:21:00,
2013-09-18 13:25:00,54.0,49.9,29.50,ESE,113,0.0,1.8,86,0.00,,,0.00,WUHU21636XXSP,2013-09-18 11:25:00,
2013-09-18 13:30:00,54.0,49.9,29.49,SE,126,0.0,2.0,86,0.00,-RA,,0.00,WeatherDisplay:10.37,2013-09-18 11:30:00,
2013-09-18 13:35:00,54.3,50.5,29.50,SE,135,0.0,0.7,87,0.00,,,0.00,WUHU21636XXSP,2013-09-18 11:35:00,
2013-09-18 13:40:00,54.3,50.5,29.49,SE,135,0.0,1.0,87,0.00,-RA,,0.00,WeatherDisplay:10.37,2013-09-18 11:40:00,
2013-09-18 13:45:00,54.3,50.5,29.50,SE,135,0.0,0.0,87,0.00,,,0.00,WUHU21636XXSP,2013-09-18 11:45:00,
2013-09-18 13:50:00,54.3,50.5,29.49,SE,135,0.0,0.0,87,0.00,-RA,,0.00,WeatherDisplay:10.37,2013-09-18 11:50:00,
2013-09-18 13:55:00,54.9,51.1,29.49,SE,135,0.0,0.0,87,0.00,,,0.00,WUHU21636XXSP,2013-09-18 11:55:00,
2013-09-18 14:00:00,54.9,51.1,29.49,SE,126,0.0,0.0,87,0.00,-RA,,0.00,WeatherDisplay:10.37,2013-09-18 12:00:00,
2013-09-18 14:05:00,55.2,51.4,29.49,SE,135,0.0,0.0,87,0.00,,,0.00,WUHU21636XXSP,2013-09-18 12:05:00,
2013-09-18 14:10:00,55.2,51.4,29.49,SE,135,0.0,0.0,87,0.00,-RA,,0.00,WeatherDisplay:10.37,2013-09-18 12:10:00,
2013-09-18 14:15:00,55.2,51.4,29.49,SE,135,0.0,0.0,87,0.00,,,0.00,WUHU21636XXSP,2013-09-18 12:15:00,
2013-09-18 14:20:00,55.2,51.4,29.49,SE,135,0.0,0.0,87,0.00,-RA,,0.00,WeatherDisplay:10.37,2013-09-18 12:20:00,
2013-09-18 14:25:00,55.6,52.1,29.49,SW,225,0.0,0.0,88,0.00,,,0.00,WUHU21636XXSP,2013-09-18 12:25:00,
2013-09-18 14:30:00,55.6,52.1,29.49,SSW,202,0.0,0.0,88,0.00,-RA,,0.00,WeatherDisplay:10.37,2013-09-18 12:30:00,
2013-09-18 14:35:00,56.1,52.9,29.49,SE,135,0.0,0.0,89,0.00,,,0.00,WUHU21636XXSP,2013-09-18 12:35:00,
2013-09-18 14:40:00,56.1,52.9,29.49,SE,135,0.0,0.0,89,0.00,-RA,,0.00,WeatherDisplay:10.37,2013-09-18 12:40:00,
2013-09-18 14:45:00,55.9,52.4,29.49,SE,135,0.0,0.0,88,0.00,,,0.00,WUHU21636XXSP,2013-09-18 12:45:00,
2013-09-18 14:50:00,55.9,52.4,29.48,SE,135,0.0,0.0,88,0.00,-RA,,0.00,WeatherDisplay:10.37,2013-09-18 12:50:00,
2013-09-18 14:55:00,56.5,53.0,29.49,SE,135,0.0,0.7,88,0.00,,,0.00,WUHU21636XXSP,2013-09-18 12:55:00,
2013-09-18 15:00:00,56.8,53.3,29.50,SE,135,0.0,0.7,88,0.00,,,0.00,WUHU21636XXSP,2013-09-18 13:00:00,
2013-09-18 15:01:00,56.5,53.0,29.49,SE,135,0.0,1.0,88,0.00,-RA,,0.00,WeatherDisplay:10.37,2013-09-18 13:01:00,
2013-09-18 15:05:00,57.0,53.5,29.49,SSW,203,0.0,0.0,88,0.00,,,0.00,WUHU21636XXSP,2013-09-18 13:05:00,
2013-09-18 15:10:00,57.2,53.7,29.49,NW,315,0.0,0.0,88,0.00,,,0.00,WUHU21636XXSP,2013-09-18 13:10:00,
2013-09-18 15:15:00,57.0,53.5,29.50,NW,315,0.0,0.0,88,0.00,,,0.00,WUHU21636XXSP,2013-09-18 13:15:00,
2013-09-18 15:20:00,57.0,53.5,29.50,NW,315,0.0,0.0,88,0.00,,,0.00,WUHU21636XXSP,2013-09-18 13:20:00,
2013-09-18 15:21:00,57.0,53.5,29.49,NW,315,0.0,0.0,88,0.00,-RA,,0.00,WeatherDisplay:10.37,2013-09-18 13:21:00,
2013-09-18 15:25:00,57.4,54.2,29.49,NW,315,0.0,0.0,89,0.00,,,0.00,WUHU21636XXSP,2013-09-18 13:25:00,
2013-09-18 15:30:00,57.4,54.2,29.49,NW,315,0.0,0.0,89,0.00,-RA,,0.00,WeatherDisplay:10.37,2013-09-18 13:30:00,
2013-09-18 15:35:00,57.0,53.8,29.50,WNW,293,0.0,0.0,89,0.00,,,0.00,WUHU21636XXSP,2013-09-18 13:35:00,
2013-09-18 15:40:00,57.0,53.8,29.49,WNW,292,0.0,0.0,89,0.00,-RA,,0.00,WeatherDisplay:10.37,2013-09-18 13:40:00,
2013-09-18 15:45:00,57.2,54.0,29.50,WNW,293,0.4,0.7,89,0.00,,,0.00,WUHU21636XXSP,2013-09-18 13:45:00,
2013-09-18 15:50:00,57.0,53.8,29.50,WNW,293,0.7,0.7,89,0.00,,,0.00,WUHU21636XXSP,2013-09-18 13:50:00,
2013-09-18 15:55:00,57.0,53.8,29.50,WNW,293,0.0,0.7,89,0.00,,,0.00,WUHU21636XXSP,2013-09-18 13:55:00,
2013-09-18 16:00:00,57.4,54.2,29.50,WNW,293,0.0,0.7,89,0.00,,,0.00,WUHU21636XXSP,2013-09-18 14:00:00,
2013-09-18 16:01:00,57.0,53.8,29.49,WNW,292,0.0,1.0,89,0.00,-RA,,0.00,WeatherDisplay:10.37,2013-09-18 14:01:00,
2013-09-18 16:05:00,57.2,54.0,29.50,WNW,293,0.0,0.0,89,0.00,,,0.00,WUHU21636XXSP,2013-09-18 14:05:00,
2013-09-18 16:10:00,57.2,53.7,29.50,WNW,293,0.0,0.0,88,0.00,,,0.00,WUHU21636XXSP,2013-09-18 14:10:00,
2013-09-18 16:11:00,57.2,54.0,29.49,WNW,292,0.0,0.0,89,0.00,-RA,,0.00,WeatherDisplay:10.37,2013-09-18 14:11:00,
2013-09-18 16:15:00,57.2,54.0,29.50,WNW,293,0.0,0.0,89,0.00,,,0.00,WUHU21636XXSP,2013-09-18 14:15:00,
2013-09-18 16:20:00,57.0,53.8,29.50,WNW,293,1.1,1.1,89,0.00,,,0.00,WUHU21636XXSP,2013-09-18 14:20:00,
2013-09-18 16:21:00,57.2,54.0,29.50,WNW,292,0.0,0.0,89,0.00,-RA,,0.00,WeatherDisplay:10.37,2013-09-18 14:21:00,
2013-09-18 16:25:00,57.0,54.1,29.50,WNW,293,0.0,1.1,90,0.00,,,0.00,WUHU21636XXSP,2013-09-18 14:25:00,
2013-09-18 16:30:00,57.0,54.1,29.50,WNW,292,0.0,1.0,90,0.00,-RA,,0.00,WeatherDisplay:10.37,2013-09-18 14:30:00,
2013-09-18 16:35:00,57.0,53.8,29.50,WNW,293,0.0,0.0,89,0.00,,,0.00,WUHU21636XXSP,2013-09-18 14:35:00,
2013-09-18 16:40:00,57.0,53.8,29.50,WNW,293,0.0,0.0,89,0.00,,,0.00,WUHU21636XXSP,2013-09-18 14:40:00,
2013-09-18 16:45:00,56.8,53.3,29.51,WNW,293,0.0,0.0,88,0.00,,,0.00,WUHU21636XXSP,2013-09-18 14:45:00,
2013-09-18 16:50:00,56.8,53.3,29.50,WNW,292,0.0,0.0,88,0.00,-RA,,0.00,WeatherDisplay:10.37,2013-09-18 14:50:00,
2013-09-18 16:55:00,56.8,53.6,29.51,WNW,293,0.0,0.0,89,0.00,,,0.00,WUHU21636XXSP,2013-09-18 14:55:00,
2013-09-18 17:00:00,57.0,54.1,29.51,WNW,293,0.0,0.0,90,0.00,,,0.00,WUHU21636XXSP,2013-09-18 15:00:00,
2013-09-18 17:05:00,56.8,53.6,29.51,WNW,293,0.0,0.0,89,0.00,,,0.00,WUHU21636XXSP,2013-09-18 15:05:00,
2013-09-18 17:10:00,56.7,53.5,29.51,WNW,293,0.0,0.0,89,0.00,,,0.00,WUHU21636XXSP,2013-09-18 15:10:00,
2013-09-18 17:11:00,56.8,53.6,29.50,WNW,292,0.0,0.0,89,0.00,-RA,,0.00,WeatherDisplay:10.37,2013-09-18 15:11:00,
2013-09-18 17:15:00,56.7,53.5,29.51,WNW,293,0.0,0.0,89,0.00,,,0.00,WUHU21636XXSP,2013-09-18 15:15:00,
2013-09-18 17:20:00,56.7,53.5,29.50,WNW,292,0.0,0.0,89,0.00,-RA,,0.00,WeatherDisplay:10.37,2013-09-18 15:20:00,
2013-09-18 17:25:00,56.7,53.8,29.52,WNW,293,0.0,0.0,90,0.00,,,0.00,WUHU21636XXSP,2013-09-18 15:25:00,
2013-09-18 17:30:00,56.7,53.8,29.51,WNW,292,0.0,0.0,90,0.00,-RA,,0.00,WeatherDisplay:10.37,2013-09-18 15:30:00,
2013-09-18 17:35:00,56.5,53.6,29.52,WNW,293,0.0,0.0,90,0.00,,,0.00,WUHU21636XXSP,2013-09-18 15:35:00,
2013-09-18 17:40:00,56.5,53.6,29.51,WNW,292,0.0,0.0,90,0.00,-RA,,0.00,WeatherDisplay:10.37,2013-09-18 15:40:00,
2013-09-18 17:45:00,56.5,53.6,29.52,WNW,293,0.0,0.0,90,0.00,,,0.00,WUHU21636XXSP,2013-09-18 15:45:00,
2013-09-18 17:50:00,56.5,53.6,29.51,WNW,292,0.0,0.0,90,0.00,-RA,,0.00,WeatherDisplay:10.37,2013-09-18 15:50:00,
2013-09-18 17:55:00,56.1,53.5,29.52,WNW,293,0.0,0.0,91,0.00,,,0.00,WUHU21636XXSP,2013-09-18 15:55:00,
2013-09-18 18:00:00,56.1,53.2,29.52,WNW,293,0.0,0.0,90,0.00,,,0.00,WUHU21636XXSP,2013-09-18 16:00:00,
2013-09-18 18:05:00,56.1,53.2,29.53,WNW,293,0.0,0.0,90,0.00,,,0.00,WUHU21636XXSP,2013-09-18 16:05:00,
2013-09-18 18:10:00,56.1,53.2,29.52,WNW,292,0.0,0.0,90,0.00,-RA,,0.00,WeatherDisplay:10.37,2013-09-18 16:10:00,
2013-09-18 18:15:00,55.9,53.0,29.53,WNW,293,0.0,0.0,90,0.00,,,0.00,WUHU21636XXSP,2013-09-18 16:15:00,
2013-09-18 18:20:00,55.9,53.0,29.52,WNW,292,0.0,0.0,90,0.00,-RA,,0.00,WeatherDisplay:10.37,2013-09-18 16:20:00,
2013-09-18 18:25:00,56.1,53.5,29.53,WNW,293,0.0,0.0,91,0.00,,,0.00,WUHU21636XXSP,2013-09-18 16:25:00,
2013-09-18 18:30:00,56.1,53.5,29.52,WNW,292,0.0,0.0,91,0.00,-RA,,0.00,WeatherDisplay:10.37,2013-09-18 16:30:00,
2013-09-18 18:35:00,55.9,53.3,29.54,WNW,293,0.0,0.0,91,0.00,,,0.00,WUHU21636XXSP,2013-09-18 16:35:00,
2013-09-18 18:40:00,55.9,53.4,29.53,WNW,292,0.0,0.0,91,0.00,-RA,,0.00,WeatherDisplay:10.37,2013-09-18 16:40:00,
2013-09-18 18:45:00,55.8,52.9,29.54,WNW,293,1.1,1.1,90,0.00,,,0.00,WUHU21636XXSP,2013-09-18 16:45:00,
2013-09-18 18:50:00,55.8,52.9,29.53,WNW,292,1.0,1.0,90,0.00,-RA,,0.00,WeatherDisplay:10.37,2013-09-18 16:50:00,
2013-09-18 18:55:00,55.8,52.9,29.55,WNW,293,0.0,1.1,90,0.00,,,0.00,WUHU21636XXSP,2013-09-18 16:55:00,
2013-09-18 19:00:00,55.8,52.6,29.55,WNW,293,0.0,0.0,89,0.00,,,0.00,WUHU21636XXSP,2013-09-18 17:00:00,
2013-09-18 19:05:00,55.6,52.7,29.55,ESE,113,0.0,0.0,90,0.00,,,0.00,WUHU21636XXSP,2013-09-18 17:05:00,
2013-09-18 19:10:00,55.6,52.7,29.54,WNW,292,0.0,0.0,90,0.00,-RA,,0.00,WeatherDisplay:10.37,2013-09-18 17:10:00,
2013-09-18 19:15:00,55.2,52.3,29.55,WNW,293,2.5,2.5,90,0.00,,,0.00,WUHU21636XXSP,2013-09-18 17:15:00,
2013-09-18 19:20:00,55.2,52.3,29.54,WNW,299,2.0,2.0,90,0.00,-RA,,0.00,WeatherDisplay:10.37,2013-09-18 17:20:00,
2013-09-18 19:25:00,55.0,51.8,29.55,WNW,293,0.0,2.5,89,0.00,,,0.00,WUHU21636XXSP,2013-09-18 17:25:00,
2013-09-18 19:30:00,54.9,52.0,29.55,WNW,293,0.0,0.0,90,0.00,,,0.00,WUHU21636XXSP,2013-09-18 17:30:00,
2013-09-18 19:35:00,54.7,51.8,29.56,WNW,293,0.0,0.0,90,0.00,,,0.00,WUHU21636XXSP,2013-09-18 17:35:00,
2013-09-18 19:40:00,54.7,51.8,29.56,WNW,293,0.0,0.0,90,0.00,,,0.00,WUHU21636XXSP,2013-09-18 17:40:00,
2013-09-18 19:41:00,54.7,51.8,29.55,WNW,292,0.0,0.0,90,0.00,-RA,,0.00,WeatherDisplay:10.37,2013-09-18 17:41:00,
2013-09-18 19:45:00,54.5,51.6,29.56,WNW,293,0.7,0.7,90,0.00,,,0.00,WUHU21636XXSP,2013-09-18 17:45:00,
2013-09-18 19:50:00,54.5,51.6,29.55,WNW,292,1.0,1.0,90,0.00,-RA,,0.00,WeatherDisplay:10.37,2013-09-18 17:50:00,
2013-09-18 19:55:00,54.5,51.6,29.57,WNW,293,0.0,0.7,90,0.00,,,0.00,WUHU21636XXSP,2013-09-18 17:55:00,
2013-09-18 20:00:00,54.5,51.6,29.56,WNW,292,0.0,0.0,90,0.00,-RA,,0.00,WeatherDisplay:10.37,2013-09-18 18:00:00,
2013-09-18 20:05:00,54.3,51.4,29.57,WNW,293,0.0,0.0,90,0.00,,,0.00,WUHU21636XXSP,2013-09-18 18:05:00,
2013-09-18 20:10:00,54.3,51.4,29.56,WNW,292,0.0,0.0,90,0.00,-RA,,0.00,WeatherDisplay:10.37,2013-09-18 18:10:00,
2013-09-18 20:15:00,54.3,51.4,29.57,WNW,293,0.0,0.0,90,0.00,,,0.00,WUHU21636XXSP,2013-09-18 18:15:00,
2013-09-18 20:20:00,54.1,51.2,29.58,WNW,293,1.1,1.1,90,0.00,,,0.00,WUHU21636XXSP,2013-09-18 18:20:00,
2013-09-18 20:25:00,54.1,51.2,29.58,WNW,293,0.0,1.1,90,0.00,,,0.00,WUHU21636XXSP,2013-09-18 18:25:00,
2013-09-18 20:30:00,54.1,51.3,29.57,WNW,292,0.0,1.0,90,0.00,-RA,,0.00,WeatherDisplay:10.37,2013-09-18 18:30:00,
2013-09-18 20:35:00,54.1,51.5,29.59,WNW,293,0.0,0.0,91,0.00,,,0.00,WUHU21636XXSP,2013-09-18 18:35:00,
2013-09-18 20:40:00,54.1,51.5,29.59,WNW,293,0.0,0.0,91,0.00,,,0.00,WUHU21636XXSP,2013-09-18 18:40:00,
2013-09-18 20:41:00,54.1,51.6,29.58,WNW,292,0.0,0.0,91,0.00,-RA,,0.00,WeatherDisplay:10.37,2013-09-18 18:41:00,
2013-09-18 20:45:00,54.1,51.5,29.59,WNW,293,0.0,0.0,91,0.00,,,0.00,WUHU21636XXSP,2013-09-18 18:45:00,
2013-09-18 20:50:00,54.1,51.6,29.58,WNW,292,0.0,0.0,91,0.00,-RA,,0.00,WeatherDisplay:10.37,2013-09-18 18:50:00,
2013-09-18 20:55:00,54.1,51.5,29.59,NW,315,0.0,0.0,91,0.00,,,0.00,WUHU21636XXSP,2013-09-18 18:55:00,
2013-09-18 21:00:00,54.1,51.5,29.60,NNE,23,0.0,0.0,91,0.00,,,0.00,WUHU21636XXSP,2013-09-18 19:00:00,
2013-09-18 21:01:00,54.1,51.6,29.59,NW,310,0.0,0.0,91,0.00,-RA,,0.00,WeatherDisplay:10.37,2013-09-18 19:01:00,
2013-09-18 21:05:00,54.0,51.4,29.60,NW,315,0.0,0.0,91,0.00,,,0.00,WUHU21636XXSP,2013-09-18 19:05:00,
2013-09-18 21:10:00,54.0,51.4,29.59,NNW,341,0.0,0.0,91,0.00,-RA,,0.00,WeatherDisplay:10.37,2013-09-18 19:10:00,
2013-09-18 21:15:00,53.8,51.2,29.61,WNW,293,0.0,0.0,91,0.00,,,0.00,WUHU21636XXSP,2013-09-18 19:15:00,
2013-09-18 21:20:00,53.8,51.2,29.60,WNW,297,0.0,0.0,91,0.00,SCT,,0.00,WeatherDisplay:10.37,2013-09-18 19:20:00,
2013-09-18 21:25:00,53.2,50.6,29.61,WNW,293,0.0,0.0,91,0.00,,,0.00,WUHU21636XXSP,2013-09-18 19:25:00,
2013-09-18 21:30:00,53.2,50.3,29.61,WNW,293,0.0,0.0,90,0.00,,,0.00,WUHU21636XXSP,2013-09-18 19:30:00,
2013-09-18 21:31:00,53.2,50.7,29.60,WNW,292,0.0,0.0,91,0.00,SCT,,0.00,WeatherDisplay:10.37,2013-09-18 19:31:00,
2013-09-18 21:35:00,52.9,50.0,29.61,WNW,293,0.0,0.0,90,0.00,,,0.00,WUHU21636XXSP,2013-09-18 19:35:00,
2013-09-18 21:40:00,52.9,50.0,29.60,WNW,292,0.0,0.0,90,0.00,SCT,,0.00,WeatherDisplay:10.37,2013-09-18 19:40:00,
2013-09-18 21:45:00,52.7,49.8,29.61,WNW,293,0.0,0.0,90,0.00,,,0.00,WUHU21636XXSP,2013-09-18 19:45:00,
2013-09-18 21:50:00,52.7,49.8,29.60,WNW,292,0.0,0.0,90,0.00,BKN,,0.00,WeatherDisplay:10.37,2013-09-18 19:50:00,
2013-09-18 21:55:00,52.5,49.6,29.62,WNW,293,0.0,0.0,90,0.00,,,0.00,WUHU21636XXSP,2013-09-18 19:55:00,
2013-09-18 22:00:00,52.5,49.7,29.61,WNW,292,0.0,0.0,90,0.00,BKN,,0.00,WeatherDisplay:10.37,2013-09-18 20:00:00,
2013-09-18 22:05:00,52.2,49.0,29.62,WNW,293,0.0,1.1,89,0.00,,,0.00,WUHU21636XXSP,2013-09-18 20:05:00,
2013-09-18 22:10:00,52.2,49.0,29.62,WNW,292,0.0,1.0,89,0.00,BKN,,0.00,WeatherDisplay:10.37,2013-09-18 20:10:00,
2013-09-18 22:15:00,52.0,48.8,29.62,WNW,293,0.0,0.0,89,0.00,,,0.00,WUHU21636XXSP,2013-09-18 20:15:00,
2013-09-18 22:20:00,52.0,48.8,29.62,WNW,292,0.0,0.0,89,0.00,BKN,,0.00,WeatherDisplay:10.37,2013-09-18 20:20:00,
2013-09-18 22:25:00,52.0,48.5,29.62,WNW,293,0.0,0.0,88,0.00,,,0.00,WUHU21636XXSP,2013-09-18 20:25:00,
2013-09-18 22:30:00,52.0,48.5,29.62,WNW,292,0.0,0.0,88,0.00,BKN,,0.00,WeatherDisplay:10.37,2013-09-18 20:30:00,
2013-09-18 22:35:00,51.6,48.1,29.63,WNW,293,0.0,0.0,88,0.00,,,0.00,WUHU21636XXSP,2013-09-18 20:35:00,
2013-09-18 22:40:00,51.6,48.2,29.62,WNW,292,0.0,0.0,88,0.00,BKN,,0.00,WeatherDisplay:10.37,2013-09-18 20:40:00,
2013-09-18 22:45:00,51.6,47.8,29.64,WNW,293,0.0,0.0,87,0.00,,,0.00,WUHU21636XXSP,2013-09-18 20:45:00,
2013-09-18 22:50:00,51.6,47.9,29.63,WNW,292,0.0,0.0,87,0.00,BKN,,0.00,WeatherDisplay:10.37,2013-09-18 20:50:00,
2013-09-18 22:55:00,51.4,47.6,29.64,WNW,293,0.0,0.0,87,0.00,,,0.00,WUHU21636XXSP,2013-09-18 20:55:00,
2013-09-18 23:00:00,51.4,47.9,29.64,WNW,293,0.0,0.0,88,0.00,,,0.00,WUHU21636XXSP,2013-09-18 21:00:00,
2013-09-18 23:01:00,51.4,47.7,29.63,WNW,292,0.0,0.0,87,0.00,BKN,,0.00,WeatherDisplay:10.37,2013-09-18 21:01:00,
2013-09-18 23:05:00,51.4,47.9,29.64,WNW,293,0.0,0.0,88,0.00,,,0.00,WUHU21636XXSP,2013-09-18 21:05:00,
2013-09-18 23:10:00,51.4,48.0,29.63,WNW,292,0.0,0.0,88,0.00,BKN,,0.00,WeatherDisplay:10.37,2013-09-18 21:10:00,
2013-09-18 23:15:00,51.1,47.6,29.65,North,0,0.0,0.0,88,0.00,,,0.00,WUHU21636XXSP,2013-09-18 21:15:00,
2013-09-18 23:20:00,51.1,47.6,29.64,NW,326,0.0,0.0,88,0.00,BKN,,0.00,WeatherDisplay:10.37,2013-09-18 21:20:00,
2013-09-18 23:25:00,50.9,47.4,29.65,WNW,293,0.0,0.0,88,0.00,,,0.00,WUHU21636XXSP,2013-09-18 21:25:00,
2013-09-18 23:30:00,50.9,47.5,29.64,WNW,303,0.0,0.0,88,0.00,BKN,,0.00,WeatherDisplay:10.37,2013-09-18 21:30:00,
2013-09-18 23:35:00,50.5,46.8,29.66,NW,315,0.0,0.0,87,0.00,,,0.00,WUHU21636XXSP,2013-09-18 21:35:00,
2013-09-18 23:40:00,50.5,46.8,29.65,NW,308,0.0,0.0,87,0.00,BKN,,0.00,WeatherDisplay:10.37,2013-09-18 21:40:00,
2013-09-18 23:45:00,50.4,46.7,29.66,NW,315,0.0,0.0,87,0.00,,,0.00,WUHU21636XXSP,2013-09-18 21:45:00,
2013-09-18 23:50:00,50.4,46.6,29.65,NW,315,0.0,0.0,87,0.00,BKN,,0.00,WeatherDisplay:10.37,2013-09-18 21:50:00,
2013-09-18 23:55:00,50.2,46.5,29.66,NW,315,0.0,0.0,87,0.00,,,0.00,WUHU21636XXSP,2013-09-18 21:55:00,